< Typhoon 199723 1997 Season Typhoon 199725 >
Typhoon 199724 (JOAN)
General InformationTrack Information on Google MapsDetailed Wind InformationList of All Images || Disaster Info.ResourceGoogle EarthGE AnimationAtom FeedGeoJSON
Detalied Best Track (Time Zone = UTC)
Year Month Day Hour Lat. Long. Pressure (hPa) Wind (kt) Class Image Chart
1997 10 13 06 11.2 169.3 1008 0 2 Image Chart
1997 10 13 12 11.9 168.2 1008 0 2 Image Chart
1997 10 13 18 12.4 166.9 1006 0 2 Image Chart
1997 10 14 00 12.7 165.5 1004 0 2 Image Chart
1997 10 14 06 12.9 164.3 1004 0 2 Image Chart
1997 10 14 12 13.0 163.5 1000 35 3 Image Chart
1997 10 14 18 13.0 162.6 996 35 3 Image Chart
1997 10 15 00 13.1 161.8 992 40 3 Image Chart
1997 10 15 06 13.3 160.7 990 45 3 Image Chart
1997 10 15 12 13.4 159.6 985 50 4 Image Chart
1997 10 15 18 13.5 158.5 975 60 4 Image Chart
1997 10 16 00 13.5 157.4 960 70 5 Image Chart
1997 10 16 06 13.8 156.1 955 75 5 Image Chart
1997 10 16 12 13.9 154.7 950 80 5 Image Chart
1997 10 16 18 14.0 153.3 940 90 5 Image Chart
1997 10 17 00 14.3 151.8 930 95 5 Image Chart
1997 10 17 06 14.7 150.3 915 100 5 Image Chart
1997 10 17 12 15.0 148.7 905 105 5 Image Chart
1997 10 17 18 15.4 147.2 905 105 5 Image Chart
1997 10 18 00 15.9 145.8 905 105 5 Image Chart
1997 10 18 06 16.4 144.4 905 105 5 Image Chart
1997 10 18 12 16.9 143.2 910 105 5 Image Chart
1997 10 18 18 17.6 142.0 910 105 5 Image Chart
1997 10 19 00 18.1 140.8 910 105 5 Image Chart
1997 10 19 06 18.5 139.8 910 105 5 Image Chart
1997 10 19 12 18.9 139.0 910 105 5 Image Chart
1997 10 19 18 19.5 138.1 910 105 5 Image Chart
1997 10 20 00 20.1 137.5 915 105 5 Image Chart
1997 10 20 06 20.8 137.0 920 100 5 Image Chart
1997 10 20 12 21.5 136.7 925 95 5 Image Chart
1997 10 20 18 22.2 136.7 930 90 5 Image Chart
1997 10 21 00 23.2 137.0 935 90 5 Image Chart
1997 10 21 06 24.0 137.3 935 90 5 Image Chart
1997 10 21 12 25.1 138.2 935 90 5 Image Chart
1997 10 21 15 25.5 138.7 940 85 5 Image Chart
1997 10 21 18 26.0 139.3 940 85 5 Image Chart
1997 10 21 21 26.5 140.0 945 80 5 Image Chart
1997 10 22 00 27.1 140.9 950 80 5 Image Chart
1997 10 22 03 27.5 141.8 950 80 5 Image Chart
1997 10 22 06 27.9 142.9 955 75 5 Image Chart
1997 10 22 09 28.2 144.4 955 75 5 Image Chart
1997 10 22 12 28.4 145.6 960 70 5 Image Chart
1997 10 22 18 28.8 147.5 965 65 5 Image Chart
1997 10 23 00 29.3 150.0 970 65 5 Image Chart
1997 10 23 06 29.6 152.6 975 60 4 Image Chart
1997 10 23 12 29.8 155.7 975 60 4 Image Chart
1997 10 23 18 29.8 158.7 980 55 4 Image Chart
1997 10 24 00 29.9 161.4 985 50 4 Image Chart
1997 10 24 06 30.0 164.5 990 0 6 Image Chart
1997 10 24 12 30.4 167.5 990 0 6 Image Chart
1997 10 24 18 32.1 171.8 992 0 6 Image Chart
Japan Meteorological Agency Best Track Data | Correction Date : 1998-01-19
< Typhoon 199723 1997 Season Typhoon 199725 >

Help